Time;durP1;ratioP1;P1;durP2;ratioP2;P2;SDS_P1;SDS_P2;PMS_P1;PMS_P2;Temp;Humidity;BMP_temperature;BMP_pressure;BME280_temperature;BME280_humidity;BME280_pressure;Samples;Min_cycle;Max_cycle;Signal;HPM_P1;HPM_P2
2023/05/14 00:00:09;;;;;;;5.77;3.17;;;11.30;99.90;;;12.01;100.00;98278.25;4926584;29;20469;-78
2023/05/14 00:02:38;;;;;;;3.60;3.07;;;11.20;99.90;;;12.00;100.00;98281.09;4926659;29;20506;-78
2023/05/14 00:05:10;;;;;;;8.83;3.20;;;11.20;99.90;;;11.99;100.00;98277.66;4926444;29;20565;-78
2023/05/14 00:07:38;;;;;;;3.90;3.10;;;11.20;99.90;;;11.95;100.00;98288.69;4926118;29;20474;-78
2023/05/14 00:10:08;;;;;;;5.80;3.30;;;11.20;99.90;;;11.92;100.00;98281.22;4927303;29;20466;-78
2023/05/14 00:12:36;;;;;;;4.87;3.23;;;11.20;99.90;;;11.90;100.00;98273.56;4925800;29;20518;-78
2023/05/14 00:15:08;;;;;;;3.30;2.73;;;11.10;99.90;;;11.91;100.00;98276.97;4925213;29;20473;-78
2023/05/14 00:17:37;;;;;;;3.80;3.10;;;11.10;99.90;;;11.88;100.00;98277.34;4926119;29;20494;-78
2023/05/14 00:20:07;;;;;;;6.37;2.90;;;11.10;99.90;;;11.85;100.00;98278.53;4925713;29;20470;-78
2023/05/14 00:22:37;;;;;;;4.23;3.30;;;11.00;99.90;;;11.81;100.00;98271.25;4923385;29;20514;-79
2023/05/14 00:25:08;;;;;;;6.10;3.03;;;11.10;99.90;;;11.80;100.00;98269.63;4924372;29;20470;-78
2023/05/14 00:27:37;;;;;;;6.30;3.63;;;11.00;99.90;;;11.77;100.00;98270.00;4926155;29;20497;-78
2023/05/14 00:30:09;;;;;;;5.10;3.40;;;11.00;99.90;;;11.72;100.00;98267.97;4924373;29;20488;-78
2023/05/14 00:32:37;;;;;;;5.30;3.07;;;11.00;99.90;;;11.71;100.00;98276.00;4925050;29;20474;-80
2023/05/14 00:35:07;;;;;;;3.10;2.80;;;10.90;99.90;;;11.69;100.00;98270.13;4925532;29;21179;-79
2023/05/14 00:37:37;;;;;;;3.27;2.90;;;10.90;99.90;;;11.65;100.00;98263.63;4923538;29;20475;-79
2023/05/14 00:40:10;;;;;;;4.57;3.07;;;10.90;99.90;;;11.62;100.00;98267.44;4925800;29;20470;-78
2023/05/14 00:42:39;;;;;;;4.47;2.70;;;10.80;99.90;;;11.60;100.00;98262.38;4923765;29;21688;-78
2023/05/14 00:45:11;;;;;;;12.07;2.90;;;10.80;99.90;;;11.55;100.00;98267.38;4924580;29;20502;-79
2023/05/14 00:47:39;;;;;;;4.60;2.90;;;10.80;99.90;;;11.52;100.00;98259.88;4927194;29;20447;-78
2023/05/14 00:50:11;;;;;;;3.50;2.57;;;10.80;99.90;;;11.52;100.00;98262.50;4923944;29;20503;-79
2023/05/14 00:52:42;;;;;;;5.03;2.80;;;10.80;99.90;;;11.48;100.00;98261.28;4925414;29;20470;-79
2023/05/14 00:55:16;;;;;;;7.37;3.07;;;10.70;99.90;;;11.44;100.00;98265.25;4925703;29;20535;-79
2023/05/14 00:57:44;;;;;;;5.77;3.43;;;10.70;99.90;;;11.43;100.00;98265.44;4921297;29;20992;-78
2023/05/14 01:00:17;;;;;;;6.40;2.63;;;10.70;99.90;;;11.40;100.00;98263.19;4922701;29;20666;-78
2023/05/14 01:02:46;;;;;;;5.10;3.20;;;10.70;99.90;;;11.34;100.00;98258.69;4922674;29;21096;-79
2023/05/14 01:05:15;;;;;;;3.60;2.90;;;10.60;99.90;;;11.32;100.00;98260.69;4919916;29;20969;-78
2023/05/14 01:07:58;;;;;;;4.93;3.23;;;10.60;99.90;;;11.32;100.00;98258.06;4923126;29;20470;-78
2023/05/14 01:10:42;;;;;;;3.77;3.27;;;10.60;99.90;;;11.32;100.00;98256.25;4922743;29;21022;-78
2023/05/14 01:13:19;;;;;;;8.50;3.10;;;10.50;99.90;;;11.29;100.00;98240.94;4904422;29;20553;-78
2023/05/14 01:15:50;;;;;;;5.53;3.30;;;10.50;99.90;;;11.28;100.00;98241.91;4923593;29;20512;-78
2023/05/14 01:18:19;;;;;;;7.20;3.07;;;10.50;99.90;;;11.28;100.00;98247.16;4920379;29;20880;-78
2023/05/14 01:20:51;;;;;;;2.83;2.53;;;10.50;99.90;;;11.26;100.00;98241.31;4921010;29;20498;-78
2023/05/14 01:23:21;;;;;;;3.83;2.83;;;10.40;99.90;;;11.25;100.00;98239.69;4921824;29;20533;-78
2023/05/14 01:25:49;;;;;;;3.23;2.63;;;10.40;99.90;;;11.22;100.00;98234.81;4923030;29;21018;-78
2023/05/14 01:28:25;;;;;;;4.03;3.57;;;10.50;99.90;;;11.21;100.00;98233.19;4922212;29;20498;-78
2023/05/14 01:31:01;;;;;;;2.83;2.60;;;10.40;99.90;;;11.20;100.00;98225.53;4922422;29;20494;-78
2023/05/14 01:33:33;;;;;;;4.50;2.80;;;10.40;99.90;;;11.19;100.00;98226.53;4923486;29;20887;-78
2023/05/14 01:36:03;;;;;;;8.73;3.20;;;10.30;99.90;;;11.16;100.00;98232.94;4921098;29;21010;-78
2023/05/14 01:38:35;;;;;;;4.80;2.70;;;10.30;99.90;;;11.10;100.00;98237.13;4923888;29;20472;-78
2023/05/14 01:41:05;;;;;;;4.07;3.03;;;10.30;99.90;;;11.08;100.00;98238.28;4922539;29;20473;-78
2023/05/14 01:43:34;;;;;;;3.60;2.80;;;10.30;99.90;;;11.03;100.00;98243.28;4925363;29;20475;-79
2023/05/14 01:46:03;;;;;;;2.87;2.43;;;10.20;99.90;;;10.99;100.00;98240.22;4924938;29;20597;-78
2023/05/14 01:48:32;;;;;;;4.10;2.70;;;10.30;99.90;;;10.92;100.00;98244.56;4925004;29;21024;-79
2023/05/14 01:51:01;;;;;;;4.83;3.03;;;10.30;99.90;;;10.86;100.00;98237.47;4923248;29;21068;-78
2023/05/14 01:53:33;;;;;;;4.43;2.90;;;10.20;99.90;;;10.85;100.00;98242.88;4922379;29;20583;-79
2023/05/14 01:56:02;;;;;;;4.90;2.90;;;10.20;99.90;;;10.81;100.00;98242.41;4918835;29;20844;-78
2023/05/14 01:58:31;;;;;;;11.13;3.30;;;10.10;99.90;;;10.81;100.00;98228.53;4920595;29;20483;-78
2023/05/14 02:01:00;;;;;;;5.20;2.80;;;10.10;99.90;;;10.78;100.00;98234.94;4923317;29;20533;-78
2023/05/14 02:03:30;;;;;;;4.77;3.20;;;10.10;99.90;;;10.76;100.00;98230.91;4921508;29;20462;-79
2023/05/14 02:06:00;;;;;;;3.70;2.90;;;10.10;99.90;;;10.77;100.00;98235.13;4921939;29;20949;-79
2023/05/14 02:08:28;;;;;;;4.10;2.80;;;10.00;99.90;;;10.78;100.00;98232.34;4924302;29;21032;-80
2023/05/14 02:10:59;;;;;;;3.83;2.93;;;10.00;99.90;;;10.77;100.00;98227.28;4924382;29;20477;-79
2023/05/14 02:13:29;;;;;;;3.27;2.87;;;10.00;99.90;;;10.74;100.00;98225.03;4922832;29;20964;-78
2023/05/14 02:15:58;;;;;;;4.00;3.07;;;10.00;99.90;;;10.73;100.00;98226.00;4925971;29;20471;-79
2023/05/14 02:18:26;;;;;;;2.90;2.47;;;10.00;99.90;;;10.73;100.00;98228.63;4924544;29;20466;-78
2023/05/14 02:20:56;;;;;;;6.60;3.07;;;10.00;99.90;;;10.70;100.00;98223.75;4925755;29;20481;-78
2023/05/14 02:23:25;;;;;;;7.63;3.20;;;10.00;99.90;;;10.65;100.00;98215.69;4923532;29;20945;-78
2023/05/14 02:26:08;;;;;;;4.13;2.77;;;9.90;99.90;;;10.66;100.00;98217.28;4924191;29;20549;-78
2023/05/14 02:28:37;;;;;;;3.47;2.83;;;9.90;99.90;;;10.64;100.00;98216.66;4923621;29;20954;-78
2023/05/14 02:31:05;;;;;;;3.80;2.80;;;9.90;99.90;;;10.60;100.00;98217.03;4925882;29;20462;-79
2023/05/14 02:33:35;;;;;;;8.83;3.23;;;9.90;99.90;;;10.57;100.00;98208.75;4923985;29;20502;-81
2023/05/14 02:36:04;;;;;;;5.00;3.33;;;9.90;99.90;;;10.55;100.00;98208.91;4924539;29;20498;-79
2023/05/14 02:38:33;;;;;;;3.83;2.63;;;9.80;99.90;;;10.53;100.00;98208.28;4921481;29;20517;-79
2023/05/14 02:41:02;;;;;;;7.03;3.30;;;9.80;99.90;;;10.49;100.00;98207.03;4922466;29;20473;-78
2023/05/14 02:43:32;;;;;;;3.90;3.13;;;9.80;99.90;;;10.48;100.00;98199.38;4922508;29;20470;-78
2023/05/14 02:46:01;;;;;;;3.73;3.13;;;9.70;99.90;;;10.46;100.00;98201.34;4922576;29;20482;-78
2023/05/14 02:48:30;;;;;;;7.47;3.30;;;9.70;99.90;;;10.44;100.00;98204.16;4923540;29;20479;-81
2023/05/14 02:50:58;;;;;;;5.67;3.63;;;9.70;99.90;;;10.43;100.00;98202.53;4922176;29;20502;-78
2023/05/14 02:53:27;;;;;;;3.63;3.03;;;9.70;99.90;;;10.40;100.00;98197.69;4921944;29;20509;-78
2023/05/14 02:55:56;;;;;;;3.80;2.90;;;9.60;99.90;;;10.39;100.00;98198.66;4923917;29;21146;-78
2023/05/14 02:58:25;;;;;;;9.00;3.70;;;9.60;99.90;;;10.41;100.00;98194.03;4922533;29;21088;-78
2023/05/14 03:00:57;;;;;;;4.57;3.20;;;9.60;99.90;;;10.39;100.00;98197.84;4922971;29;20553;-79
2023/05/14 03:03:28;;;;;;;8.60;2.80;;;9.60;99.90;;;10.34;100.00;98200.22;4925862;29;20472;-78
2023/05/14 03:05:58;;;;;;;8.43;3.00;;;9.60;99.90;;;10.34;100.00;98195.78;4923002;29;20835;-78
2023/05/14 03:08:28;;;;;;;4.43;3.10;;;9.60;99.90;;;10.33;100.00;98186.31;4925047;29;20561;-79
2023/05/14 03:10:56;;;;;;;4.13;2.80;;;9.50;99.90;;;10.33;100.00;98191.56;4923395;29;20474;-79
2023/05/14 03:13:25;;;;;;;4.10;3.03;;;9.50;99.90;;;10.23;100.00;98198.03;4925560;29;20470;-78
2023/05/14 03:15:56;;;;;;;3.53;2.83;;;9.60;99.90;;;10.19;100.00;98200.22;4925417;29;20470;-79
2023/05/14 03:18:27;;;;;;;3.37;3.07;;;9.50;99.90;;;10.18;100.00;98203.81;4924703;29;20612;-78
2023/05/14 03:20:55;;;;;;;7.57;3.40;;;9.40;99.90;;;10.16;100.00;98202.38;4924217;29;20470;-78
2023/05/14 03:23:24;;;;;;;4.03;2.90;;;9.40;99.90;;;10.13;100.00;98195.69;4923113;29;20549;-78
2023/05/14 03:25:53;;;;;;;3.23;2.40;;;9.40;99.90;;;10.10;100.00;98196.84;4922755;29;20549;-79
2023/05/14 03:28:22;;;;;;;6.50;3.40;;;9.40;99.90;;;10.05;100.00;98198.38;4926236;29;20864;-78
2023/05/14 03:30:51;;;;;;;3.30;2.80;;;9.40;99.90;;;10.01;100.00;98197.91;4922746;29;20506;-78
2023/05/14 03:33:22;;;;;;;4.77;2.60;;;9.30;99.90;;;10.01;100.00;98191.88;4923793;29;20475;-79
2023/05/14 03:35:51;;;;;;;12.70;3.00;;;9.30;99.90;;;10.00;100.00;98188.44;4923012;29;21228;-79
2023/05/14 03:38:19;;;;;;;3.00;2.70;;;9.30;99.90;;;9.99;100.00;98193.88;4923419;29;20502;-78
2023/05/14 03:40:49;;;;;;;4.53;3.23;;;9.30;99.90;;;9.97;100.00;98188.81;4924157;29;23489;-79
2023/05/14 03:43:17;;;;;;;7.80;3.37;;;9.30;99.90;;;9.94;100.00;98190.97;4925486;29;20563;-79
2023/05/14 03:45:47;;;;;;;3.73;2.67;;;9.20;99.90;;;9.94;100.00;98185.75;4919837;29;20486;-78
2023/05/14 03:48:15;;;;;;;2.90;2.70;;;9.20;99.90;;;9.94;100.00;98185.75;4926506;29;20565;-79
2023/05/14 03:50:45;;;;;;;6.53;3.20;;;9.20;99.90;;;9.88;100.00;98183.84;4927970;29;20470;-78
2023/05/14 03:53:14;;;;;;;3.00;2.67;;;9.20;99.90;;;9.91;100.00;98183.50;4926252;29;20461;-79
2023/05/14 03:55:43;;;;;;;4.50;3.27;;;9.10;99.90;;;9.91;100.00;98183.50;4923409;29;20502;-78
2023/05/14 03:58:13;;;;;;;3.77;3.03;;;9.10;99.90;;;9.90;100.00;98180.06;4922286;29;20499;-78
2023/05/14 04:00:42;;;;;;;3.47;2.73;;;9.10;99.90;;;9.87;100.00;98190.06;4921644;29;20541;-79
2023/05/14 04:03:12;;;;;;;5.73;3.40;;;9.10;99.90;;;9.85;100.00;98194.66;4925289;29;20473;-78
2023/05/14 04:05:40;;;;;;;4.03;2.57;;;9.10;99.90;;;9.80;100.00;98183.94;4924949;29;20528;-82
2023/05/14 04:08:10;;;;;;;5.00;3.10;;;9.10;99.90;;;9.79;100.00;98195.38;4926103;29;20495;-79
2023/05/14 04:10:39;;;;;;;6.20;3.43;;;9.10;99.90;;;9.79;100.00;98193.56;4926007;29;20501;-78
2023/05/14 04:13:08;;;;;;;5.00;3.40;;;9.00;99.90;;;9.79;100.00;98187.56;4928590;29;20470;-79
2023/05/14 04:15:38;;;;;;;3.33;3.03;;;9.00;99.90;;;9.80;100.00;98195.19;4927185;29;20462;-78
2023/05/14 04:18:06;;;;;;;4.33;3.03;;;9.00;99.90;;;9.78;100.00;98196.38;4925738;29;20498;-78
2023/05/14 04:20:35;;;;;;;3.13;2.67;;;9.00;99.90;;;9.75;100.00;98196.72;4923096;29;20471;-78
2023/05/14 04:23:04;;;;;;;3.10;2.80;;;9.00;99.90;;;9.73;100.00;98194.28;4922738;29;21033;-77
2023/05/14 04:25:34;;;;;;;4.40;3.30;;;9.00;99.90;;;9.71;100.00;98190.22;4923178;29;20467;-78
2023/05/14 04:28:03;;;;;;;4.67;2.40;;;9.00;99.90;;;9.71;100.00;98200.69;4921007;29;20517;-78
2023/05/14 04:30:32;;;;;;;8.40;2.80;;;9.00;99.90;;;9.68;100.00;98195.81;4922480;29;20530;-79
2023/05/14 04:33:00;;;;;;;3.37;3.07;;;9.00;99.90;;;9.65;100.00;98199.56;4922086;29;20470;-78
2023/05/14 04:35:29;;;;;;;4.53;3.10;;;8.90;99.90;;;9.66;100.00;98200.38;4921869;29;20472;-77
2023/05/14 04:37:58;;;;;;;4.07;2.93;;;8.90;99.90;;;9.64;100.00;98199.75;4923163;29;20589;-79
2023/05/14 04:40:27;;;;;;;7.67;4.60;;;8.90;99.90;;;9.61;100.00;98195.72;4920856;29;20482;-79
2023/05/14 04:42:57;;;;;;;3.60;2.83;;;9.00;99.90;;;9.61;100.00;98199.13;4919927;29;20502;-78
2023/05/14 04:45:26;;;;;;;4.00;3.10;;;9.00;99.90;;;9.58;100.00;98196.84;4915839;29;20540;-79
2023/05/14 04:47:55;;;;;;;5.87;3.20;;;8.90;99.90;;;9.58;100.00;98201.25;4922590;29;20458;-81
2023/05/14 04:50:24;;;;;;;4.60;2.73;;;8.90;99.90;;;9.59;100.00;98203.72;4921140;29;21042;-78
2023/05/14 04:52:54;;;;;;;5.50;3.23;;;8.90;99.90;;;9.61;100.00;98199.13;4920451;29;20896;-79
2023/05/14 04:55:24;;;;;;;3.30;3.00;;;8.90;99.90;;;9.64;100.00;98204.97;4922658;29;20463;-79
2023/05/14 04:57:53;;;;;;;6.00;3.50;;;8.90;99.90;;;9.67;100.00;98215.06;4925224;29;20983;-78
2023/05/14 05:00:24;;;;;;;2.93;2.73;;;8.90;99.90;;;9.70;100.00;98209.50;4925185;29;20858;-78
2023/05/14 05:02:53;;;;;;;4.27;3.30;;;8.90;99.90;;;9.71;100.00;98208.50;4923910;29;20462;-79
2023/05/14 05:05:22;;;;;;;7.27;2.50;;;9.00;99.90;;;9.73;100.00;98204.72;4907574;29;20470;-79
2023/05/14 05:07:51;;;;;;;4.80;3.10;;;9.00;99.90;;;9.75;100.00;98205.38;4925287;29;20474;-80
2023/05/14 05:10:19;;;;;;;3.20;2.90;;;9.00;99.90;;;9.77;100.00;98205.19;4919645;29;20494;-79
2023/05/14 05:12:48;;;;;;;6.53;3.87;;;9.00;99.90;;;9.79;100.00;98198.78;4922907;29;20474;-79
2023/05/14 05:15:16;;;;;;;3.87;3.47;;;9.10;99.90;;;9.80;100.00;98195.19;4917810;29;21091;-77
2023/05/14 05:17:46;;;;;;;5.50;3.57;;;9.10;99.90;;;9.82;100.00;98195.03;4920998;29;20477;-78
2023/05/14 05:20:18;;;;;;;4.60;3.50;;;9.20;99.90;;;9.86;100.00;98196.28;4922043;29;20926;-79
2023/05/14 05:22:46;;;;;;;3.27;2.80;;;9.20;99.90;;;9.88;100.00;98196.91;4919721;29;20502;-79
2023/05/14 05:25:15;;;;;;;3.83;3.40;;;9.20;99.90;;;9.90;100.00;98190.53;4920675;29;20558;-79
2023/05/14 05:27:44;;;;;;;5.60;3.70;;;9.20;99.90;;;9.92;100.00;98188.56;4922285;29;20466;-79
2023/05/14 05:30:13;;;;;;;4.70;3.30;;;9.20;99.90;;;9.91;100.00;98192.16;4920625;29;20500;-79
2023/05/14 05:32:42;;;;;;;4.30;3.33;;;9.20;99.90;;;9.93;100.00;98189.34;4920425;29;20549;-79
2023/05/14 05:35:12;;;;;;;3.40;2.93;;;9.20;99.90;;;9.95;100.00;98187.38;4917839;29;21059;-79
2023/05/14 05:37:44;;;;;;;4.23;3.60;;;9.20;99.90;;;9.97;100.00;98186.19;4920531;29;20550;-79
2023/05/14 05:40:16;;;;;;;3.97;3.17;;;9.30;99.90;;;10.00;100.00;98193.69;4918363;29;20619;-78
2023/05/14 05:42:45;;;;;;;5.50;3.10;;;9.30;99.90;;;10.05;100.00;98188.75;4921094;29;20470;-79
2023/05/14 05:45:14;;;;;;;4.20;2.83;;;9.40;99.90;;;10.09;100.00;98191.81;4920343;29;20862;-79
2023/05/14 05:47:43;;;;;;;3.63;2.63;;;9.40;99.90;;;10.13;100.00;98187.84;4891655;29;20490;-79
2023/05/14 05:50:18;;;;;;;4.20;3.37;;;9.40;99.90;;;10.17;100.00;98189.09;4924232;29;21081;-79
2023/05/14 05:52:48;;;;;;;4.13;3.20;;;9.40;99.90;;;10.22;100.00;98184.16;4893350;29;21001;-80
2023/05/14 05:55:19;;;;;;;5.03;3.00;;;9.40;99.90;;;10.25;100.00;98189.03;4924993;29;20530;-79
2023/05/14 05:57:48;;;;;;;7.83;3.10;;;9.50;99.90;;;10.30;100.00;98193.72;4909458;29;20549;-79
2023/05/14 06:00:19;;;;;;;4.63;3.70;;;9.50;99.90;;;10.34;100.00;98187.97;4908731;29;20602;-78
2023/05/14 06:02:49;;;;;;;3.40;2.80;;;9.60;99.90;;;10.37;100.00;98184.97;4924704;29;21038;-78
2023/05/14 06:05:23;;;;;;;4.73;2.80;;;9.70;99.90;;;10.40;100.00;98183.78;4923858;29;20465;-78
2023/05/14 06:07:53;;;;;;;8.33;3.10;;;9.70;99.90;;;10.44;100.00;98188.47;4922439;29;20470;-79
2023/05/14 06:10:23;;;;;;;4.30;3.10;;;9.70;99.90;;;10.49;100.00;98190.53;4920453;29;20462;-79
2023/05/14 06:12:54;;;;;;;8.80;3.30;;;9.80;99.90;;;10.55;100.00;98185.38;4934141;29;20477;-79
2023/05/14 06:15:23;;;;;;;5.10;3.53;;;9.80;99.90;;;10.61;100.00;98186.47;4903586;29;20518;-77
2023/05/14 06:17:52;;;;;;;5.93;4.17;;;9.90;99.90;;;10.67;100.00;98190.13;4918930;29;20479;-79
2023/05/14 06:20:23;;;;;;;4.47;3.10;;;9.90;99.90;;;10.72;100.00;98193.84;4919173;29;21009;-80
2023/05/14 06:22:52;;;;;;;4.23;3.40;;;9.90;99.90;;;10.78;100.00;98194.91;4916357;29;21059;-79
2023/05/14 06:25:25;;;;;;;3.40;2.90;;;10.00;99.90;;;10.84;100.00;98188.91;4933960;28;20533;-79
2023/05/14 06:27:56;;;;;;;3.10;2.47;;;10.10;99.90;;;10.91;100.00;98195.03;4901781;29;20485;-77
2023/05/14 06:30:24;;;;;;;34.03;17.10;;;10.10;99.90;;;10.97;100.00;98194.28;4922969;29;20466;-79
2023/05/14 06:32:54;;;;;;;4.67;3.30;;;10.20;99.90;;;11.02;100.00;98191.94;4925898;29;20474;-79
2023/05/14 06:35:24;;;;;;;3.73;3.27;;;10.20;99.90;;;11.08;100.00;98194.63;4922878;29;21034;-79
2023/05/14 06:37:53;;;;;;;6.60;4.20;;;10.30;99.90;;;11.14;100.00;98193.06;4924382;29;20482;-79
2023/05/14 06:40:21;;;;;;;4.47;3.13;;;10.40;99.90;;;11.21;100.00;98196.53;4927379;29;20625;-79
2023/05/14 06:42:50;;;;;;;8.50;4.07;;;10.40;99.90;;;11.28;100.00;98197.41;4924957;29;20496;-79
2023/05/14 06:45:19;;;;;;;3.87;3.03;;;10.50;99.90;;;11.35;100.00;98203.53;4922890;29;20498;-79
2023/05/14 06:47:50;;;;;;;4.80;3.70;;;10.60;99.90;;;11.41;100.00;98197.56;4923128;29;20470;-79
2023/05/14 06:50:19;;;;;;;9.40;4.20;;;10.70;99.90;;;11.48;100.00;98198.41;4921512;29;20481;-79
2023/05/14 06:52:50;;;;;;;10.73;7.10;;;10.80;99.90;;;11.53;100.00;98188.19;4925462;29;20974;-79
2023/05/14 06:55:21;;;;;;;5.43;4.40;;;10.80;99.90;;;11.60;100.00;98194.28;4922450;29;20548;-80
2023/05/14 06:57:50;;;;;;;5.13;3.83;;;10.80;99.90;;;11.66;100.00;98184.06;4923538;29;20503;-79
2023/05/14 07:00:21;;;;;;;5.10;4.37;;;10.90;99.90;;;11.73;100.00;98190.19;4923803;29;20502;-79
2023/05/14 07:02:50;;;;;;;5.07;3.23;;;11.00;99.90;;;11.77;100.00;98191.41;4921401;29;20466;-80
2023/05/14 07:05:21;;;;;;;7.23;3.60;;;11.10;99.90;;;11.85;100.00;98188.63;4922665;29;20566;-79
2023/05/14 07:07:51;;;;;;;4.60;3.90;;;11.00;99.90;;;11.90;100.00;98191.50;4924376;29;20466;-76
2023/05/14 07:10:21;;;;;;;8.70;6.40;;;11.10;99.90;;;11.97;100.00;98181.88;4924320;29;20525;-78
2023/05/14 07:12:51;;;;;;;4.70;3.60;;;11.20;99.90;;;12.03;100.00;98183.72;4927770;29;20462;-78
2023/05/14 07:15:20;;;;;;;5.57;3.80;;;11.30;99.90;;;12.11;100.00;98180.97;4910460;29;20672;-78
2023/05/14 07:17:48;;;;;;;6.00;3.93;;;11.50;99.90;;;12.21;100.00;98183.22;4927886;29;20470;-79
2023/05/14 07:20:22;;;;;;;5.20;3.17;;;11.60;99.90;;;12.28;100.00;98187.50;4926829;29;20520;-78
2023/05/14 07:22:53;;;;;;;4.00;3.67;;;11.70;99.90;;;12.36;100.00;98179.44;4926546;29;20477;-78
2023/05/14 07:25:22;;;;;;;8.40;4.00;;;11.70;99.90;;;12.41;100.00;98182.31;4926492;29;20552;-79
2023/05/14 07:27:51;;;;;;;4.97;3.93;;;11.80;99.90;;;12.50;100.00;98181.13;4928415;29;20467;-79
2023/05/14 07:30:20;;;;;;;7.40;3.30;;;11.90;99.90;;;12.58;100.00;98175.72;4910009;29;20950;-78
2023/05/14 07:32:49;;;;;;;3.10;2.60;;;12.00;99.90;;;12.68;100.00;98169.28;4927584;29;20470;-78
2023/05/14 07:35:19;;;;;;;5.97;3.30;;;12.10;99.90;;;12.77;100.00;98168.13;4925549;29;20991;-78
2023/05/14 07:37:47;;;;;;;5.27;3.97;;;12.20;99.90;;;12.87;100.00;98165.94;4926504;29;20474;-79
2023/05/14 07:40:19;;;;;;;5.20;3.93;;;12.40;99.90;;;12.94;100.00;98161.50;4924704;29;20621;-79
2023/05/14 07:42:47;;;;;;;6.87;3.43;;;12.40;99.90;;;13.03;100.00;98157.66;4926168;29;21036;-78
2023/05/14 07:45:16;;;;;;;5.20;3.60;;;12.50;99.90;;;13.11;100.00;98160.16;4923208;29;20502;-79
2023/05/14 07:47:45;;;;;;;3.53;3.10;;;12.60;99.90;;;13.18;100.00;98158.34;4924066;29;20827;-80
2023/05/14 07:50:14;;;;;;;8.20;3.37;;;12.60;99.90;;;13.27;100.00;98154.50;4923195;29;20581;-79
2023/05/14 07:52:42;;;;;;;4.63;3.43;;;12.80;99.90;;;13.35;100.00;98154.31;4921313;29;20477;-77
2023/05/14 07:55:12;;;;;;;5.40;3.57;;;12.80;99.90;;;13.42;100.00;98157.75;4922945;29;21024;-79
2023/05/14 07:57:42;;;;;;;4.17;3.77;;;12.90;99.90;;;13.49;100.00;98149.88;4904598;29;20665;-79
2023/05/14 08:00:12;;;;;;;5.50;3.60;;;13.00;99.90;;;13.55;100.00;98152.47;4921475;29;20506;-79
2023/05/14 08:02:41;;;;;;;4.80;3.53;;;13.00;99.90;;;13.61;100.00;98146.41;4920431;29;21266;-79
2023/05/14 08:05:10;;;;;;;4.60;3.80;;;13.00;99.90;;;13.71;100.00;98142.56;4922939;29;20475;-79
2023/05/14 08:07:38;;;;;;;4.93;3.40;;;13.20;99.90;;;13.75;100.00;98141.13;4922632;29;21218;-76
2023/05/14 08:10:09;;;;;;;5.20;3.70;;;13.30;99.90;;;13.79;100.00;98140.53;4921858;29;20478;-78
2023/05/14 08:12:37;;;;;;;4.30;3.37;;;13.30;99.90;;;13.86;100.00;98137.88;4922651;29;20491;-77
2023/05/14 08:15:10;;;;;;;4.73;3.07;;;13.30;99.90;;;13.90;100.00;98141.72;4923764;29;20949;-77
2023/05/14 08:17:40;;;;;;;3.30;2.77;;;13.30;99.90;;;13.94;100.00;98138.47;4924892;29;20473;-77
2023/05/14 08:20:10;;;;;;;4.23;3.30;;;13.40;99.90;;;13.98;100.00;98139.69;4922669;29;20497;-77
2023/05/14 08:22:39;;;;;;;3.37;3.03;;;13.60;99.90;;;14.04;100.00;98130.97;4924397;29;20825;-79
2023/05/14 08:25:09;;;;;;;5.07;3.67;;;13.60;99.90;;;14.12;100.00;98135.19;4922556;29;20502;-77
2023/05/14 08:27:37;;;;;;;3.87;3.20;;;13.70;99.90;;;14.20;100.00;98140.22;4923192;29;21043;-78
2023/05/14 08:30:09;;;;;;;4.23;3.80;;;13.70;99.90;;;14.25;100.00;98143.03;4920286;29;20562;-78
2023/05/14 08:32:38;;;;;;;4.53;3.03;;;13.80;99.90;;;14.28;100.00;98137.38;4922353;29;20554;-76
2023/05/14 08:35:08;;;;;;;22.53;10.60;;;13.80;99.90;;;14.34;100.00;98141.81;4921478;29;20499;-78
2023/05/14 08:37:36;;;;;;;14.00;8.77;;;13.80;99.90;;;14.41;100.00;98142.59;4924156;29;20499;-78
2023/05/14 08:40:07;;;;;;;3.70;3.37;;;13.80;99.90;;;14.44;100.00;98136.91;4922670;29;20577;-78
2023/05/14 08:42:39;;;;;;;5.27;3.67;;;13.90;99.90;;;14.47;100.00;98141.75;4922252;29;20478;-78
2023/05/14 08:45:17;;;;;;;142.37;74.67;;;13.90;99.90;;;14.49;100.00;98137.09;4915802;29;21057;-78
2023/05/14 08:47:49;;;;;;;8.10;5.03;;;13.90;99.90;;;14.52;100.00;98141.13;4917738;29;20506;-77
2023/05/14 08:50:19;;;;;;;3.90;3.10;;;13.90;99.90;;;14.56;100.00;98130.00;4919953;29;20474;-77
2023/05/14 08:52:52;;;;;;;6.43;3.20;;;14.00;99.90;;;14.60;100.00;98128.56;4918163;29;20470;-77
2023/05/14 08:55:24;;;;;;;5.80;3.43;;;14.00;99.90;;;14.63;100.00;98129.13;4921265;29;20499;-77
2023/05/14 08:57:53;;;;;;;4.50;3.47;;;14.00;99.90;;;14.73;100.00;98134.75;4921104;29;20474;-77
2023/05/14 09:00:25;;;;;;;3.20;2.83;;;14.10;99.90;;;14.82;100.00;98139.56;4919975;29;20597;-78
2023/05/14 09:02:55;;;;;;;3.87;3.23;;;14.30;99.90;;;14.88;100.00;98136.09;4920519;29;20467;-77
2023/05/14 09:05:25;;;;;;;3.37;2.67;;;14.30;99.90;;;14.94;100.00;98132.59;4921854;29;20483;-77
2023/05/14 09:07:53;;;;;;;4.40;3.50;;;14.40;99.90;;;14.99;100.00;98134.63;4920567;29;21054;-77
2023/05/14 09:10:22;;;;;;;6.10;3.27;;;14.40;99.90;;;15.04;100.00;98124.22;4919182;29;20482;-78
2023/05/14 09:12:51;;;;;;;3.37;3.07;;;14.50;99.90;;;15.10;100.00;98126.00;4920387;29;20466;-77
2023/05/14 09:15:20;;;;;;;3.47;2.70;;;14.50;99.90;;;15.19;100.00;98119.47;4921175;29;20478;-77
2023/05/14 09:17:49;;;;;;;3.43;3.00;;;14.60;99.90;;;15.25;100.00;98110.69;4920561;29;20825;-77
2023/05/14 09:20:19;;;;;;;3.37;3.03;;;14.70;99.90;;;15.33;100.00;98101.72;4920094;29;20501;-78
2023/05/14 09:22:47;;;;;;;3.10;2.80;;;14.80;99.90;;;15.39;100.00;98109.56;4920444;29;20464;-77
2023/05/14 09:25:17;;;;;;;3.87;3.20;;;14.80;99.90;;;15.48;100.00;98105.66;4920292;29;21287;-77
2023/05/14 09:27:49;;;;;;;4.17;2.90;;;14.90;99.90;;;15.57;100.00;98093.84;4920212;29;20498;-77
2023/05/14 09:30:19;;;;;;;3.50;3.13;;;15.10;99.90;;;15.64;100.00;98101.69;4918591;29;20474;-77
2023/05/14 09:32:49;;;;;;;5.53;3.10;;;15.20;99.90;;;15.71;100.00;98089.25;4920318;29;20813;-78
2023/05/14 09:35:20;;;;;;;5.53;3.50;;;15.20;99.90;;;15.75;100.00;98090.41;4921644;29;20504;-77
2023/05/14 09:37:51;;;;;;;4.70;2.87;;;15.30;99.90;;;15.83;100.00;98095.38;4920559;29;20482;-77
2023/05/14 09:40:23;;;;;;;4.67;2.70;;;15.30;99.90;;;15.86;100.00;98094.16;4919674;29;20753;-77
2023/05/14 09:42:52;;;;;;;4.83;3.40;;;15.30;99.90;;;15.88;100.00;98090.28;4919961;29;20474;-78
2023/05/14 09:45:21;;;;;;;3.03;2.73;;;15.30;99.90;;;15.92;100.00;98082.72;4920912;29;20558;-77
2023/05/14 09:47:52;;;;;;;4.40;3.60;;;15.30;99.90;;;15.93;100.00;98085.13;4919922;29;20549;-78
2023/05/14 09:50:21;;;;;;;3.73;2.70;;;15.30;99.90;;;15.97;100.00;98090.78;4920393;29;20469;-78
2023/05/14 09:52:50;;;;;;;3.63;2.83;;;15.40;99.90;;;15.94;100.00;98086.75;4919391;29;20479;-78
2023/05/14 09:55:20;;;;;;;7.20;3.47;;;15.30;99.90;;;15.95;100.00;98085.72;4921053;29;20574;-78
2023/05/14 09:57:49;;;;;;;4.17;3.10;;;15.30;99.90;;;16.03;100.00;98079.34;4920273;29;20482;-77
2023/05/14 10:00:19;;;;;;;3.93;2.77;;;15.40;99.90;;;16.01;100.00;98086.66;4920358;29;20895;-77
2023/05/14 10:02:52;;;;;;;3.03;2.73;;;15.30;99.90;;;16.05;100.00;98075.47;4924002;29;20480;-78
2023/05/14 10:05:22;;;;;;;4.60;3.57;;;15.40;99.90;;;16.09;100.00;98078.47;4925096;29;20462;-77
2023/05/14 10:07:53;;;;;;;3.20;2.90;;;15.40;99.90;;;16.15;100.00;98071.50;4923929;29;20498;-78
2023/05/14 10:10:26;;;;;;;4.00;2.73;;;15.50;99.90;;;16.20;100.00;98066.38;4924508;29;20915;-78
2023/05/14 10:13:03;;;;;;;3.43;3.13;;;15.60;99.90;;;16.27;100.00;98059.97;4924605;29;20470;-78
2023/05/14 10:15:40;;;;;;;2.80;2.50;;;15.60;99.90;;;16.33;100.00;98053.00;4924855;29;20505;-79
2023/05/14 10:18:13;;;;;;;3.27;2.67;;;15.70;99.90;;;16.39;100.00;98046.81;4925604;29;20529;-78
2023/05/14 10:20:42;;;;;;;3.90;2.20;;;15.90;99.90;;;16.46;100.00;98045.72;4924200;29;20535;-77
2023/05/14 10:23:11;;;;;;;4.80;2.40;;;15.90;99.90;;;16.52;100.00;98052.72;4924202;29;20868;-78
2023/05/14 10:25:41;;;;;;;2.90;2.27;;;16.00;99.90;;;16.55;100.00;98054.97;4923451;29;20838;-78